Time;durP1;ratioP1;P1;durP2;ratioP2;P2;SDS_P1;SDS_P2;PMS_P1;PMS_P2;Temp;Humidity;BMP_temperature;BMP_pressure;BME280_temperature;BME280_humidity;BME280_pressure;Samples;Min_cycle;Max_cycle;Signal;HPM_P1;HPM_P2
2021/08/16 00:07:00;;;;;;;7.43;3.15;;;29.00;20.30;;;;;;21128572;27;82591;-72
2021/08/16 00:17:03;;;;;;;8.55;3.33;;;29.00;19.70;;;;;;21144388;27;80722;-72
2021/08/16 00:27:04;;;;;;;8.27;3.63;;;28.70;20.20;;;;;;21143889;27;81821;-72
2021/08/16 00:37:06;;;;;;;6.55;2.83;;;28.50;20.40;;;;;;21124934;27;80860;-72
2021/08/16 00:47:09;;;;;;;6.43;3.53;;;28.30;21.20;;;;;;21123211;27;81109;-72
2021/08/16 00:57:10;;;;;;;8.57;3.42;;;28.10;20.50;;;;;;21141658;27;79912;-72
2021/08/16 01:07:12;;;;;;;7.22;2.70;;;27.90;21.20;;;;;;21123254;27;81598;-72
2021/08/16 01:17:16;;;;;;;6.20;3.13;;;27.70;21.70;;;;;;21123593;27;80629;-73
2021/08/16 01:27:18;;;;;;;5.63;3.00;;;27.40;21.40;;;;;;21122526;27;81676;-72
2021/08/16 01:37:21;;;;;;;7.22;3.03;;;26.90;21.40;;;;;;21121654;27;80767;-73
2021/08/16 01:47:24;;;;;;;6.28;2.70;;;26.60;26.00;;;;;;21138800;27;80028;-73
2021/08/16 01:57:39;;;;;;;5.32;2.78;;;26.50;23.40;;;;;;21126998;27;80768;-73
2021/08/16 02:07:50;;;;;;;6.63;3.10;;;26.20;23.90;;;;;;21136437;27;80966;-73
2021/08/16 02:17:58;;;;;;;5.70;2.72;;;26.00;23.90;;;;;;21153183;27;81007;-73
2021/08/16 02:28:03;;;;;;;8.75;2.55;;;25.60;24.10;;;;;;21134178;27;80725;-73
2021/08/16 02:38:07;;;;;;;5.13;2.90;;;25.60;24.90;;;;;;21132242;27;81119;-73
2021/08/16 02:48:11;;;;;;;7.13;2.70;;;25.50;24.10;;;;;;21149826;27;81213;-73
2021/08/16 02:58:15;;;;;;;9.05;3.15;;;25.40;24.90;;;;;;21131758;27;80790;-71
2021/08/16 03:08:19;;;;;;;6.93;3.28;;;25.40;25.10;;;;;;21130267;27;81097;-73
2021/08/16 03:18:40;;;;;;;;;;;25.20;25.30;;;;;;21149160;27;82683;-71
2021/08/16 03:29:01;;;;;;;5.40;2.90;;;25.10;25.80;;;;;;21156224;27;80228;-72
2021/08/16 03:39:25;;;;;;;6.55;3.17;;;24.90;25.50;;;;;;21147469;27;80003;-72
2021/08/16 03:49:43;;;;;;;6.72;3.58;;;24.70;26.90;;;;;;21130257;27;80750;-72
2021/08/16 03:59:52;;;;;;;6.70;3.55;;;24.40;27.20;;;;;;21128234;27;80853;-72
2021/08/16 04:09:59;;;;;;;6.20;3.25;;;24.20;28.00;;;;;;21127492;27;80705;-72
2021/08/16 04:20:14;;;;;;;6.22;3.55;;;24.00;27.20;;;;;;21127246;27;81785;-72
2021/08/16 04:30:23;;;;;;;8.77;3.23;;;23.90;27.30;;;;;;21127248;27;81734;-72
2021/08/16 04:40:41;;;;;;;4.30;3.08;;;23.70;27.70;;;;;;21127137;27;81081;-73
2021/08/16 04:50:55;;;;;;;7.32;3.30;;;23.50;27.50;;;;;;21127127;27;80776;-72
2021/08/16 05:00:58;;;;;;;6.47;2.78;;;23.40;27.90;;;;;;21124372;27;79994;-74
2021/08/16 05:11:04;;;;;;;11.65;3.40;;;23.20;27.90;;;;;;21141398;27;81163;-74
2021/08/16 05:21:07;;;;;;;6.28;3.08;;;23.20;27.80;;;;;;21122286;27;81758;-67
2021/08/16 05:31:09;;;;;;;6.25;3.50;;;23.00;29.10;;;;;;21121993;27;80709;-67
2021/08/16 05:41:12;;;;;;;10.55;3.83;;;22.80;29.30;;;;;;21138700;27;80605;-66
2021/08/16 05:51:17;;;;;;;7.50;3.70;;;22.80;30.00;;;;;;21121165;27;81994;-66
2021/08/16 06:01:21;;;;;;;7.22;3.35;;;22.70;31.00;;;;;;21138068;27;80481;-72
2021/08/16 06:11:24;;;;;;;5.53;3.47;;;22.80;30.70;;;;;;21118827;27;80909;-70
2021/08/16 06:21:27;;;;;;;8.00;4.32;;;22.70;30.40;;;;;;21118511;27;80943;-74
2021/08/16 06:31:31;;;;;;;15.10;3.85;;;22.90;30.40;;;;;;21118125;27;81706;-69
2021/08/16 06:41:33;;;;;;;8.40;4.30;;;23.00;29.40;;;;;;21136471;27;81978;-69
2021/08/16 06:51:37;;;;;;;10.23;4.25;;;23.10;29.50;;;;;;21131860;27;80928;-69
2021/08/16 07:01:39;;;;;;;19.83;4.78;;;23.30;28.90;;;;;;21131945;27;81975;-67
2021/08/16 07:11:44;;;;;;;14.65;4.32;;;23.40;28.90;;;;;;21130766;27;80920;-67
2021/08/16 07:21:47;;;;;;;10.18;5.07;;;23.80;29.30;;;;;;21147588;27;80681;-66
2021/08/16 07:31:51;;;;;;;13.68;5.03;;;24.10;30.20;;;;;;21141855;27;79827;-69
2021/08/16 07:41:54;;;;;;;15.85;4.88;;;24.50;31.20;;;;;;21128834;27;80696;-66
2021/08/16 07:51:58;;;;;;;14.23;4.20;;;25.10;31.90;;;;;;21127800;27;81158;-69
2021/08/16 08:02:02;;;;;;;10.02;3.20;;;25.60;32.60;;;;;;21126889;27;81587;-68
2021/08/16 08:12:04;;;;;;;10.60;3.58;;;26.20;34.90;;;;;;21144746;27;82543;-69
2021/08/16 08:22:07;;;;;;;11.98;2.90;;;26.90;34.70;;;;;;21124719;27;80977;-65
2021/08/16 08:32:14;;;;;;;12.60;3.47;;;27.30;34.30;;;;;;21142546;27;81266;-68
2021/08/16 08:42:16;;;;;;;5.57;2.65;;;27.80;33.60;;;;;;21123372;27;80696;-72
2021/08/16 08:52:20;;;;;;;6.93;2.95;;;28.20;33.10;;;;;;21123468;27;80710;-65
2021/08/16 09:02:22;;;;;;;9.88;2.88;;;28.60;32.80;;;;;;21121797;27;80369;-66
2021/08/16 09:12:31;;;;;;;9.43;2.22;;;29.00;32.10;;;;;;21120318;27;79951;-65
2021/08/16 09:22:36;;;;;;;11.25;2.97;;;29.40;32.00;;;;;;21121527;27;82719;-67
2021/08/16 09:32:40;;;;;;;10.70;2.60;;;29.80;31.80;;;;;;21120206;27;81353;-67
2021/08/16 09:42:50;;;;;;;17.40;3.50;;;30.30;29.70;;;;;;21120831;27;82228;-67
2021/08/16 09:52:52;;;;;;;7.45;2.85;;;30.90;28.50;;;;;;21119702;27;82155;-65
2021/08/16 10:02:55;;;;;;;9.65;2.60;;;31.70;27.90;;;;;;21119011;27;82011;-66
2021/08/16 10:12:58;;;;;;;8.18;2.95;;;32.50;26.30;;;;;;21138371;27;80647;-66
2021/08/16 10:22:59;;;;;;;12.00;2.85;;;33.60;25.60;;;;;;21131056;27;81183;-66
2021/08/16 10:33:04;;;;;;;6.63;2.70;;;35.00;22.70;;;;;;21134447;27;80781;-64
2021/08/16 10:43:10;;;;;;;4.03;2.80;;;36.20;20.50;;;;;;21132961;27;80673;-66
2021/08/16 10:53:14;;;;;;;9.65;2.80;;;37.90;18.90;;;;;;21132734;27;81102;-65
2021/08/16 11:03:22;;;;;;;6.18;2.60;;;40.10;17.00;;;;;;21131753;27;81707;-65
2021/08/16 11:13:24;;;;;;;6.27;3.50;;;42.40;15.40;;;;;;21130868;27;80742;-64
2021/08/16 11:23:28;;;;;;;8.77;3.25;;;45.40;13.70;;;;;;21130836;27;81990;-63
2021/08/16 11:33:30;;;;;;;8.45;3.70;;;48.20;12.60;;;;;;21130601;27;80742;-64
2021/08/16 11:43:34;;;;;;;7.10;3.25;;;50.60;11.60;;;;;;21131408;27;80986;-66
2021/08/16 11:53:44;;;;;;;4.80;3.80;;;52.50;11.00;;;;;;21128514;27;80061;-67
2021/08/16 12:03:46;;;;;;;6.60;3.88;;;53.70;10.30;;;;;;21127881;27;80683;-67
2021/08/16 12:13:57;;;;;;;6.97;6.10;;;55.00;9.60;;;;;;21145571;27;80686;-68
2021/08/16 12:24:05;;;;;;;9.32;6.30;;;56.20;9.30;;;;;;21146149;27;81173;-66
2021/08/16 12:34:12;;;;;;;9.60;8.38;;;55.00;9.30;;;;;;21126185;27;80108;-66
2021/08/16 12:44:23;;;;;;;8.70;7.90;;;57.40;8.40;;;;;;21144345;27;80871;-67
2021/08/16 12:54:27;;;;;;;9.20;8.25;;;58.50;8.70;;;;;;21144937;27;82328;-66
2021/08/16 13:04:29;;;;;;;11.32;9.77;;;59.60;8.20;;;;;;21141162;27;79860;-66
2021/08/16 13:14:31;;;;;;;11.13;9.95;;;59.40;8.10;;;;;;21123832;27;80713;-67
2021/08/16 13:24:33;;;;;;;11.38;10.43;;;57.90;8.30;;;;;;21122730;27;81101;-66
2021/08/16 13:34:35;;;;;;;11.45;10.50;;;53.70;9.20;;;;;;21128589;27;82696;-67
2021/08/16 13:44:37;;;;;;;11.23;10.32;;;52.70;8.30;;;;;;21109696;27;82611;-66
2021/08/16 13:54:40;;;;;;;11.50;10.30;;;53.00;8.70;;;;;;21115350;27;84430;-65
2021/08/16 14:04:43;;;;;;;9.65;8.65;;;53.20;8.70;;;;;;21143008;27;83658;-65
2021/08/16 14:14:48;;;;;;;10.52;9.68;;;53.60;8.70;;;;;;21154715;27;83349;-66
2021/08/16 14:24:50;;;;;;;;;;;56.50;8.00;;;;;;21135316;27;82951;-65
2021/08/16 14:34:52;;;;;;;11.52;10.57;;;58.20;8.40;;;;;;21155271;27;80611;-65
2021/08/16 14:44:54;;;;;;;10.10;9.30;;;58.90;7.90;;;;;;21140085;27;82457;-65
2021/08/16 14:54:57;;;;;;;11.55;10.32;;;60.10;8.00;;;;;;21132235;27;84328;-66
2021/08/16 15:04:59;;;;;;;9.13;8.52;;;59.70;8.00;;;;;;21119854;27;82706;-68
2021/08/16 15:15:01;;;;;;;;;;;53.60;8.90;;;;;;21131540;27;83840;-64
2021/08/16 15:25:04;;;;;;;7.53;6.82;;;50.70;9.30;;;;;;21171009;27;80881;-64
2021/08/16 15:35:06;;;;;;;7.65;6.97;;;46.50;10.40;;;;;;21130098;27;79895;-65
2021/08/16 15:45:10;;;;;;;7.37;6.37;;;45.10;10.80;;;;;;21149599;27;81827;-66
2021/08/16 15:55:14;;;;;;;6.50;5.78;;;44.30;10.90;;;;;;21128770;27;80026;-65
2021/08/16 16:05:16;;;;;;;7.80;5.82;;;44.60;11.00;;;;;;21128022;27;83825;-65
2021/08/16 16:15:18;;;;;;;6.38;5.65;;;45.90;10.80;;;;;;21144966;27;82063;-66
2021/08/16 16:25:19;;;;;;;7.10;6.40;;;43.50;11.50;;;;;;21128218;27;80801;-71
2021/08/16 16:35:26;;;;;;;6.70;5.97;;;43.60;11.90;;;;;;21145301;27;82308;-69
2021/08/16 16:45:27;;;;;;;9.13;5.30;;;45.50;11.00;;;;;;21144125;27;80706;-70
2021/08/16 16:55:29;;;;;;;6.82;5.40;;;42.60;12.00;;;;;;21124824;27;80776;-68
2021/08/16 17:05:31;;;;;;;7.55;5.60;;;42.10;12.30;;;;;;21144071;27;81236;-71
2021/08/16 17:15:32;;;;;;;9.00;6.15;;;43.60;12.20;;;;;;21141893;27;81177;-73
2021/08/16 17:25:34;;;;;;;6.25;5.03;;;41.20;12.80;;;;;;21121402;27;80891;-71
2021/08/16 17:35:37;;;;;;;8.07;4.80;;;40.10;13.50;;;;;;21123445;27;80750;-72
2021/08/16 17:45:40;;;;;;;5.80;4.90;;;39.50;13.90;;;;;;21121667;27;81058;-71
2021/08/16 17:55:42;;;;;;;5.80;5.18;;;39.40;13.60;;;;;;21139943;27;81107;-69
2021/08/16 18:05:44;;;;;;;5.90;4.47;;;39.30;13.50;;;;;;21138749;27;82748;-69
2021/08/16 18:15:47;;;;;;;6.65;4.57;;;39.80;13.70;;;;;;21120438;27;80039;-70
2021/08/16 18:25:49;;;;;;;6.60;4.47;;;39.50;14.20;;;;;;21116737;27;80364;-70
2021/08/16 18:35:51;;;;;;;8.73;4.63;;;38.90;14.60;;;;;;21136672;27;80579;-70
2021/08/16 18:45:53;;;;;;;6.97;3.83;;;38.20;15.30;;;;;;21133254;27;80944;-70
2021/08/16 18:55:55;;;;;;;5.15;3.22;;;36.50;17.30;;;;;;21134621;27;81621;-71
2021/08/16 19:05:57;;;;;;;5.80;2.83;;;35.50;18.40;;;;;;21064127;27;81038;-62
2021/08/16 19:15:59;;;;;;;11.10;3.25;;;34.90;19.00;;;;;;21065055;27;80961;-63
2021/08/16 19:26:00;;;;;;;4.82;2.75;;;34.50;19.70;;;;;;21063306;27;80955;-64
2021/08/16 19:36:02;;;;;;;4.40;2.63;;;34.00;20.20;;;;;;21061620;27;81901;-64
2021/08/16 19:46:04;;;;;;;4.22;2.25;;;33.60;20.60;;;;;;21060964;27;80560;-62
2021/08/16 19:56:14;;;;;;;5.13;2.13;;;33.30;20.80;;;;;;21060980;27;80747;-60
2021/08/16 20:06:17;;;;;;;5.28;2.45;;;32.90;21.00;;;;;;21061031;27;80725;-60
2021/08/16 20:16:19;;;;;;;6.38;2.42;;;32.50;21.00;;;;;;21061120;27;82212;-62
2021/08/16 20:26:20;;;;;;;8.27;2.00;;;32.20;21.00;;;;;;21058965;27;81732;-61
2021/08/16 20:36:24;;;;;;;11.48;2.78;;;31.80;20.60;;;;;;21058486;27;80710;-61
2021/08/16 20:46:26;;;;;;;8.23;2.35;;;31.50;20.60;;;;;;21057185;27;81897;-60
2021/08/16 20:56:28;;;;;;;6.72;1.90;;;31.20;20.30;;;;;;21056267;27;80695;-60
2021/08/16 21:06:31;;;;;;;11.75;1.77;;;30.90;19.60;;;;;;20970817;27;81886;-60
2021/08/16 21:16:32;;;;;;;8.02;1.30;;;30.70;19.60;;;;;;20970789;27;81866;-62
2021/08/16 21:26:34;;;;;;;5.65;1.48;;;30.50;19.70;;;;;;20971158;27;79836;-61
2021/08/16 21:36:36;;;;;;;8.50;2.28;;;30.20;19.30;;;;;;20972098;27;81168;-61
2021/08/16 21:46:37;;;;;;;11.10;2.33;;;29.90;20.00;;;;;;20965090;27;80747;-61
2021/08/16 21:56:39;;;;;;;7.10;2.78;;;29.70;21.70;;;;;;20952278;27;79925;-61
2021/08/16 22:06:41;;;;;;;6.90;2.28;;;29.40;23.70;;;;;;21052449;27;80787;-61
2021/08/16 22:16:42;;;;;;;12.35;4.10;;;29.10;25.70;;;;;;21061222;27;81856;-73
2021/08/16 22:26:45;;;;;;;9.27;2.65;;;28.90;27.20;;;;;;21133979;27;80162;-74
2021/08/16 22:36:46;;;;;;;5.07;2.45;;;28.50;28.30;;;;;;21133706;27;81194;-75
2021/08/16 22:46:48;;;;;;;4.68;2.25;;;28.30;28.90;;;;;;21133165;27;81254;-74
2021/08/16 22:56:51;;;;;;;7.40;2.28;;;28.00;29.40;;;;;;21131401;27;80995;-73
2021/08/16 23:06:53;;;;;;;5.95;2.40;;;27.70;29.80;;;;;;21130564;27;80030;-74
2021/08/16 23:16:57;;;;;;;8.45;2.30;;;27.40;30.10;;;;;;21131559;27;79829;-74
2021/08/16 23:26:59;;;;;;;5.82;2.05;;;27.10;30.60;;;;;;21130238;27;81073;-75
2021/08/16 23:37:01;;;;;;;5.72;2.40;;;27.00;30.70;;;;;;21130764;27;81054;-75
2021/08/16 23:47:03;;;;;;;4.75;1.98;;;26.70;31.10;;;;;;21129280;27;80733;-74
2021/08/16 23:57:05;;;;;;;6.10;2.95;;;26.50;31.40;;;;;;21127308;27;81043;-74
